sensor_id;sensor_type;location;lat;lon;timestamp;pressure;altitude;pressure_sealevel;temperature;humidity
42859;BME280;28505;56.970;40.998;2023-03-14T00:02:10;99954.22;;;-6.77;100.00
42859;BME280;28505;56.970;40.998;2023-03-14T00:07:37;99972.88;;;-6.57;100.00
42859;BME280;28505;56.970;40.998;2023-03-14T00:13:19;99957.41;;;-6.67;100.00
42859;BME280;28505;56.970;40.998;2023-03-14T00:19:00;99941.50;;;-6.80;100.00
42859;BME280;28505;56.970;40.998;2023-03-14T00:24:40;99937.44;;;-6.82;100.00
42859;BME280;28505;56.970;40.998;2023-03-14T00:30:21;99953.16;;;-6.68;100.00
42859;BME280;28505;56.970;40.998;2023-03-14T00:36:05;99950.63;;;-6.76;100.00
42859;BME280;28505;56.970;40.998;2023-03-14T00:41:47;99924.69;;;-7.00;100.00
42859;BME280;28505;56.970;40.998;2023-03-14T00:47:27;99965.53;;;-6.91;100.00
42859;BME280;28505;56.970;40.998;2023-03-14T00:53:09;99961.00;;;-6.97;100.00
42859;BME280;28505;56.970;40.998;2023-03-14T00:58:32;99957.47;;;-7.04;100.00
42859;BME280;28505;56.970;40.998;2023-03-14T01:03:55;99951.44;;;-7.05;100.00
42859;BME280;28505;56.970;40.998;2023-03-14T01:09:17;99963.34;;;-7.02;100.00
42859;BME280;28505;56.970;40.998;2023-03-14T01:14:41;99924.63;;;-7.30;100.00
42859;BME280;28505;56.970;40.998;2023-03-14T01:20:04;99952.69;;;-7.16;100.00
42859;BME280;28505;56.970;40.998;2023-03-14T01:25:45;99928.25;;;-7.31;100.00
42859;BME280;28505;56.970;40.998;2023-03-14T01:31:27;99919.91;;;-7.49;100.00
42859;BME280;28505;56.970;40.998;2023-03-14T01:36:56;99935.44;;;-7.48;100.00
42859;BME280;28505;56.970;40.998;2023-03-14T01:42:19;99939.63;;;-7.39;100.00
42859;BME280;28505;56.970;40.998;2023-03-14T01:47:41;99952.19;;;-7.34;100.00
42859;BME280;28505;56.970;40.998;2023-03-14T01:53:03;99938.56;;;-7.53;100.00
42859;BME280;28505;56.970;40.998;2023-03-14T01:58:27;99954.75;;;-7.49;100.00
42859;BME280;28505;56.970;40.998;2023-03-14T02:03:57;99972.59;;;-7.30;100.00
42859;BME280;28505;56.970;40.998;2023-03-14T02:09:22;99955.56;;;-7.25;100.00
42859;BME280;28505;56.970;40.998;2023-03-14T02:14:44;99949.06;;;-7.15;100.00
42859;BME280;28505;56.970;40.998;2023-03-14T02:20:30;99939.75;;;-7.17;100.00
42859;BME280;28505;56.970;40.998;2023-03-14T02:26:00;99932.53;;;-7.15;100.00
42859;BME280;28505;56.970;40.998;2023-03-14T02:31:25;99933.09;;;-7.05;100.00
42859;BME280;28505;56.970;40.998;2023-03-14T02:36:48;99880.66;;;-7.20;100.00
42859;BME280;28505;56.970;40.998;2023-03-14T02:42:11;99875.00;;;-7.09;100.00
42859;BME280;28505;56.970;40.998;2023-03-14T02:47:39;99865.59;;;-6.88;100.00
42859;BME280;28505;56.970;40.998;2023-03-14T02:53:05;99850.50;;;-6.86;100.00
42859;BME280;28505;56.970;40.998;2023-03-14T02:58:28;99846.50;;;-6.82;100.00
42859;BME280;28505;56.970;40.998;2023-03-14T03:03:59;99839.09;;;-6.78;100.00
42859;BME280;28505;56.970;40.998;2023-03-14T03:09:21;99847.38;;;-6.60;100.00
42859;BME280;28505;56.970;40.998;2023-03-14T03:14:45;99844.63;;;-6.52;100.00
42859;BME280;28505;56.970;40.998;2023-03-14T03:20:09;99808.06;;;-6.60;100.00
42859;BME280;28505;56.970;40.998;2023-03-14T03:25:32;99809.81;;;-6.46;100.00
42859;BME280;28505;56.970;40.998;2023-03-14T03:30:57;99789.03;;;-6.47;100.00
42859;BME280;28505;56.970;40.998;2023-03-14T03:36:24;99790.13;;;-6.35;100.00
42859;BME280;28505;56.970;40.998;2023-03-14T03:41:48;99789.38;;;-6.29;100.00
42859;BME280;28505;56.970;40.998;2023-03-14T03:47:12;99767.38;;;-6.28;100.00
42859;BME280;28505;56.970;40.998;2023-03-14T03:52:34;99771.50;;;-6.19;100.00
42859;BME280;28505;56.970;40.998;2023-03-14T03:57:57;99752.78;;;-6.16;100.00
42859;BME280;28505;56.970;40.998;2023-03-14T04:03:19;99756.72;;;-6.05;100.00
42859;BME280;28505;56.970;40.998;2023-03-14T04:08:43;99731.59;;;-6.14;100.00
42859;BME280;28505;56.970;40.998;2023-03-14T04:14:18;99743.06;;;-5.87;100.00
42859;BME280;28505;56.970;40.998;2023-03-14T04:19:54;99731.75;;;-5.94;100.00
42859;BME280;28505;56.970;40.998;2023-03-14T04:25:25;99698.19;;;-5.92;100.00
42859;BME280;28505;56.970;40.998;2023-03-14T04:30:52;99728.25;;;-5.67;100.00
42859;BME280;28505;56.970;40.998;2023-03-14T04:36:18;99702.41;;;-5.63;100.00
42859;BME280;28505;56.970;40.998;2023-03-14T04:41:41;99684.44;;;-5.59;100.00
42859;BME280;28505;56.970;40.998;2023-03-14T04:47:04;99658.66;;;-5.49;100.00
42859;BME280;28505;56.970;40.998;2023-03-14T04:52:27;99662.34;;;-5.30;100.00
42859;BME280;28505;56.970;40.998;2023-03-14T04:57:51;99645.00;;;-5.18;100.00
42859;BME280;28505;56.970;40.998;2023-03-14T05:03:15;99629.88;;;-5.09;100.00
42859;BME280;28505;56.970;40.998;2023-03-14T05:09:00;99620.38;;;-4.97;100.00
42859;BME280;28505;56.970;40.998;2023-03-14T05:14:35;99602.41;;;-4.93;100.00
42859;BME280;28505;56.970;40.998;2023-03-14T05:20:15;99601.59;;;-4.74;100.00
42859;BME280;28505;56.970;40.998;2023-03-14T05:25:56;99582.56;;;-4.63;100.00
42859;BME280;28505;56.970;40.998;2023-03-14T05:31:33;99576.09;;;-4.40;100.00
42859;BME280;28505;56.970;40.998;2023-03-14T05:37:14;99555.00;;;-4.34;100.00
42859;BME280;28505;56.970;40.998;2023-03-14T05:42:52;99535.19;;;-4.36;100.00
42859;BME280;28505;56.970;40.998;2023-03-14T05:48:43;99541.97;;;-4.02;100.00
42859;BME280;28505;56.970;40.998;2023-03-14T05:54:25;99522.13;;;-4.05;100.00
42859;BME280;28505;56.970;40.998;2023-03-14T05:59:58;99520.84;;;-3.89;100.00
42859;BME280;28505;56.970;40.998;2023-03-14T06:05:53;99502.78;;;-3.79;100.00
42859;BME280;28505;56.970;40.998;2023-03-14T06:11:17;99486.78;;;-3.84;100.00
42859;BME280;28505;56.970;40.998;2023-03-14T06:16:42;99479.41;;;-3.68;100.00
42859;BME280;28505;56.970;40.998;2023-03-14T06:22:04;99471.63;;;-3.57;100.00
42859;BME280;28505;56.970;40.998;2023-03-14T06:27:30;99468.13;;;-3.50;100.00
42859;BME280;28505;56.970;40.998;2023-03-14T06:32:52;99440.56;;;-3.48;100.00
42859;BME280;28505;56.970;40.998;2023-03-14T06:38:16;99453.22;;;-3.32;100.00
42859;BME280;28505;56.970;40.998;2023-03-14T06:43:51;99413.78;;;-3.45;100.00
42859;BME280;28505;56.970;40.998;2023-03-14T06:49:16;99408.03;;;-3.35;100.00
42859;BME280;28505;56.970;40.998;2023-03-14T06:54:49;99421.91;;;-3.21;100.00
42859;BME280;28505;56.970;40.998;2023-03-14T07:00:15;99402.09;;;-3.31;100.00
42859;BME280;28505;56.970;40.998;2023-03-14T07:05:38;99386.09;;;-3.29;100.00
42859;BME280;28505;56.970;40.998;2023-03-14T07:11:02;99352.84;;;-3.30;100.00
42859;BME280;28505;56.970;40.998;2023-03-14T07:16:28;99335.63;;;-3.33;100.00
42859;BME280;28505;56.970;40.998;2023-03-14T07:21:54;99355.47;;;-3.12;100.00
42859;BME280;28505;56.970;40.998;2023-03-14T07:27:20;99359.22;;;-2.83;100.00
42859;BME280;28505;56.970;40.998;2023-03-14T07:32:43;99324.81;;;-2.88;100.00
42859;BME280;28505;56.970;40.998;2023-03-14T07:38:20;99324.66;;;-2.74;100.00
42859;BME280;28505;56.970;40.998;2023-03-14T07:44:39;99336.31;;;-2.52;100.00
42859;BME280;28505;56.970;40.998;2023-03-14T07:50:04;99349.94;;;-2.37;100.00
42859;BME280;28505;56.970;40.998;2023-03-14T07:55:27;99352.28;;;-2.28;100.00
42859;BME280;28505;56.970;40.998;2023-03-14T08:00:50;99352.41;;;-2.23;100.00
42859;BME280;28505;56.970;40.998;2023-03-14T08:06:13;99363.00;;;-2.12;100.00
42859;BME280;28505;56.970;40.998;2023-03-14T08:11:35;99347.31;;;-1.95;100.00
42859;BME280;28505;56.970;40.998;2023-03-14T08:16:58;99342.19;;;-1.78;100.00
42859;BME280;28505;56.970;40.998;2023-03-14T08:22:21;99342.56;;;-1.62;100.00
42859;BME280;28505;56.970;40.998;2023-03-14T08:27:43;99326.81;;;-1.57;100.00
42859;BME280;28505;56.970;40.998;2023-03-14T08:33:05;99314.53;;;-1.40;100.00
42859;BME280;28505;56.970;40.998;2023-03-14T08:38:28;99307.63;;;-1.29;100.00
42859;BME280;28505;56.970;40.998;2023-03-14T08:43:50;99306.22;;;-1.20;100.00
42859;BME280;28505;56.970;40.998;2023-03-14T08:49:13;99301.28;;;-1.16;100.00
42859;BME280;28505;56.970;40.998;2023-03-14T08:54:36;99295.16;;;-1.05;100.00
42859;BME280;28505;56.970;40.998;2023-03-14T08:59:58;99285.81;;;-0.96;100.00
42859;BME280;28505;56.970;40.998;2023-03-14T09:05:21;99270.53;;;-1.06;100.00
42859;BME280;28505;56.970;40.998;2023-03-14T09:10:43;99272.59;;;-0.96;100.00
42859;BME280;28505;56.970;40.998;2023-03-14T09:16:06;99279.00;;;-0.80;100.00
42859;BME280;28505;56.970;40.998;2023-03-14T09:21:29;99277.25;;;-0.75;100.00
42859;BME280;28505;56.970;40.998;2023-03-14T09:26:52;99265.94;;;-0.70;100.00
42859;BME280;28505;56.970;40.998;2023-03-14T09:32:14;99284.91;;;-0.61;100.00
42859;BME280;28505;56.970;40.998;2023-03-14T09:37:36;99289.00;;;-0.54;100.00
42859;BME280;28505;56.970;40.998;2023-03-14T09:42:59;99287.88;;;-0.58;100.00
42859;BME280;28505;56.970;40.998;2023-03-14T09:48:26;99279.06;;;-0.47;100.00
42859;BME280;28505;56.970;40.998;2023-03-14T09:53:51;99265.53;;;-0.33;100.00
42859;BME280;28505;56.970;40.998;2023-03-14T09:59:14;99249.03;;;-0.24;100.00
42859;BME280;28505;56.970;40.998;2023-03-14T10:04:37;99245.75;;;-0.14;100.00
42859;BME280;28505;56.970;40.998;2023-03-14T10:10:27;99242.44;;;-0.04;100.00
42859;BME280;28505;56.970;40.998;2023-03-14T10:15:59;99248.56;;;0.13;100.00
42859;BME280;28505;56.970;40.998;2023-03-14T10:21:29;99245.59;;;0.27;100.00
42859;BME280;28505;56.970;40.998;2023-03-14T10:26:58;99232.34;;;0.49;100.00
42859;BME280;28505;56.970;40.998;2023-03-14T10:32:31;99230.53;;;0.71;100.00
42859;BME280;28505;56.970;40.998;2023-03-14T10:37:57;99212.19;;;0.91;100.00
42859;BME280;28505;56.970;40.998;2023-03-14T10:43:25;99205.97;;;1.03;100.00
42859;BME280;28505;56.970;40.998;2023-03-14T10:48:49;99199.09;;;1.07;100.00
42859;BME280;28505;56.970;40.998;2023-03-14T10:54:20;99190.94;;;1.13;100.00
42859;BME280;28505;56.970;40.998;2023-03-14T10:59:43;99195.50;;;1.18;100.00
42859;BME280;28505;56.970;40.998;2023-03-14T11:05:18;99207.38;;;1.37;100.00
42859;BME280;28505;56.970;40.998;2023-03-14T11:10:50;99180.41;;;1.24;100.00
42859;BME280;28505;56.970;40.998;2023-03-14T11:16:27;99200.53;;;1.47;100.00
42859;BME280;28505;56.970;40.998;2023-03-14T11:22:23;99179.28;;;1.47;100.00
42859;BME280;28505;56.970;40.998;2023-03-14T11:33:17;99192.88;;;1.82;100.00
42859;BME280;28505;56.970;40.998;2023-03-14T11:39:01;99184.38;;;1.80;100.00
42859;BME280;28505;56.970;40.998;2023-03-14T11:44:30;99166.31;;;1.82;100.00
42859;BME280;28505;56.970;40.998;2023-03-14T11:55:36;99178.06;;;1.92;100.00
42859;BME280;28505;56.970;40.998;2023-03-14T12:01:07;99184.34;;;2.13;100.00
42859;BME280;28505;56.970;40.998;2023-03-14T12:06:44;99178.47;;;2.16;100.00
42859;BME280;28505;56.970;40.998;2023-03-14T12:12:12;99163.56;;;2.09;100.00
42859;BME280;28505;56.970;40.998;2023-03-14T12:17:38;99168.41;;;2.18;100.00
42859;BME280;28505;56.970;40.998;2023-03-14T12:23:10;99178.22;;;2.17;100.00
42859;BME280;28505;56.970;40.998;2023-03-14T12:28:34;99184.63;;;2.16;100.00
42859;BME280;28505;56.970;40.998;2023-03-14T12:50:56;99207.81;;;2.26;100.00
42859;BME280;28505;56.970;40.998;2023-03-14T13:02:14;99216.09;;;2.34;100.00
42859;BME280;28505;56.970;40.998;2023-03-14T13:13:23;99216.38;;;2.38;100.00
42859;BME280;28505;56.970;40.998;2023-03-14T13:19:09;99223.03;;;2.36;100.00
42859;BME280;28505;56.970;40.998;2023-03-14T13:24:34;99213.41;;;2.29;100.00
42859;BME280;28505;56.970;40.998;2023-03-14T13:29:56;99208.03;;;2.19;100.00
42859;BME280;28505;56.970;40.998;2023-03-14T13:35:28;99193.34;;;2.06;100.00
42859;BME280;28505;56.970;40.998;2023-03-14T13:40:53;99201.84;;;2.08;100.00
42859;BME280;28505;56.970;40.998;2023-03-14T13:46:22;99203.69;;;2.03;100.00
42859;BME280;28505;56.970;40.998;2023-03-14T13:51:47;99190.59;;;1.96;100.00
42859;BME280;28505;56.970;40.998;2023-03-14T13:57:09;99181.59;;;2.02;100.00
42859;BME280;28505;56.970;40.998;2023-03-14T14:02:35;99185.94;;;2.14;100.00
42859;BME280;28505;56.970;40.998;2023-03-14T14:07:58;99184.34;;;2.13;100.00
42859;BME280;28505;56.970;40.998;2023-03-14T14:13:21;99176.66;;;2.16;100.00
42859;BME280;28505;56.970;40.998;2023-03-14T14:18:45;99182.47;;;2.13;100.00
42859;BME280;28505;56.970;40.998;2023-03-14T14:24:12;99184.84;;;2.09;100.00
42859;BME280;28505;56.970;40.998;2023-03-14T14:29:36;99201.03;;;2.08;100.00
42859;BME280;28505;56.970;40.998;2023-03-14T14:35:00;99197.81;;;2.06;100.00
42859;BME280;28505;56.970;40.998;2023-03-14T14:40:26;99209.06;;;2.13;100.00
42859;BME280;28505;56.970;40.998;2023-03-14T14:45:51;99179.41;;;1.94;100.00
42859;BME280;28505;56.970;40.998;2023-03-14T14:51:23;99201.03;;;2.08;100.00
42859;BME280;28505;56.970;40.998;2023-03-14T14:56:53;99195.44;;;2.04;100.00
42859;BME280;28505;56.970;40.998;2023-03-14T15:02:39;99189.81;;;2.01;100.00
42859;BME280;28505;56.970;40.998;2023-03-14T15:08:10;99173.25;;;1.88;100.00
42859;BME280;28505;56.970;40.998;2023-03-14T15:13:33;99164.75;;;1.86;100.00
42859;BME280;28505;56.970;40.998;2023-03-14T15:19:00;99172.25;;;1.95;100.00
42859;BME280;28505;56.970;40.998;2023-03-14T15:24:34;99161.06;;;1.93;100.00
42859;BME280;28505;56.970;40.998;2023-03-14T15:29:56;99197.31;;;2.09;100.00
42859;BME280;28505;56.970;40.998;2023-03-14T15:35:20;99172.00;;;2.01;100.00
42859;BME280;28505;56.970;40.998;2023-03-14T15:41:04;99170.66;;;1.94;100.00
42859;BME280;28505;56.970;40.998;2023-03-14T15:46:26;99214.34;;;2.08;100.00
42859;BME280;28505;56.970;40.998;2023-03-14T15:51:51;99191.94;;;1.99;100.00
42859;BME280;28505;56.970;40.998;2023-03-14T15:57:13;99228.47;;;2.14;100.00
42859;BME280;28505;56.970;40.998;2023-03-14T16:02:35;99235.66;;;2.18;100.00
42859;BME280;28505;56.970;40.998;2023-03-14T16:08:02;99247.94;;;2.19;100.00
42859;BME280;28505;56.970;40.998;2023-03-14T16:13:27;99246.31;;;2.18;100.00
42859;BME280;28505;56.970;40.998;2023-03-14T16:18:50;99255.06;;;2.19;100.00
42859;BME280;28505;56.970;40.998;2023-03-14T16:24:12;99260.69;;;2.22;100.00
42859;BME280;28505;56.970;40.998;2023-03-14T16:29:34;99278.47;;;2.17;100.00
42859;BME280;28505;56.970;40.998;2023-03-14T16:34:56;99270.22;;;2.13;100.00
42859;BME280;28505;56.970;40.998;2023-03-14T16:40:19;99290.47;;;2.19;100.00
42859;BME280;28505;56.970;40.998;2023-03-14T16:45:42;99270.50;;;2.17;100.00
42859;BME280;28505;56.970;40.998;2023-03-14T16:51:04;99286.25;;;2.23;100.00
42859;BME280;28505;56.970;40.998;2023-03-14T16:56:27;99277.97;;;2.20;100.00
42859;BME280;28505;56.970;40.998;2023-03-14T17:01:49;99277.69;;;2.16;100.00
42859;BME280;28505;56.970;40.998;2023-03-14T17:07:11;99292.88;;;2.21;100.00
42859;BME280;28505;56.970;40.998;2023-03-14T17:12:34;99280.88;;;2.18;100.00
42859;BME280;28505;56.970;40.998;2023-03-14T17:17:58;99283.59;;;2.23;100.00
42859;BME280;28505;56.970;40.998;2023-03-14T17:23:21;99297.97;;;2.27;100.00
42859;BME280;28505;56.970;40.998;2023-03-14T17:28:44;99309.97;;;2.30;100.00
42859;BME280;28505;56.970;40.998;2023-03-14T17:34:06;99286.47;;;2.22;100.00
42859;BME280;28505;56.970;40.998;2023-03-14T17:39:24;99297.34;;;2.15;100.00
42859;BME280;28505;56.970;40.998;2023-03-14T17:44:47;99305.81;;;2.12;100.00
42859;BME280;28505;56.970;40.998;2023-03-14T17:50:15;99317.31;;;2.18;100.00
42859;BME280;28505;56.970;40.998;2023-03-14T17:55:37;99326.06;;;2.13;100.00
42859;BME280;28505;56.970;40.998;2023-03-14T18:01:19;99350.38;;;2.27;100.00
42859;BME280;28505;56.970;40.998;2023-03-14T18:06:42;99330.38;;;2.19;100.00
42859;BME280;28505;56.970;40.998;2023-03-14T18:12:05;99327.94;;;2.18;100.00
42859;BME280;28505;56.970;40.998;2023-03-14T18:17:29;99305.81;;;2.12;100.00
42859;BME280;28505;56.970;40.998;2023-03-14T18:22:55;99344.25;;;2.26;100.00
42859;BME280;28505;56.970;40.998;2023-03-14T18:28:18;99341.53;;;2.21;100.00
42859;BME280;28505;56.970;40.998;2023-03-14T18:33:42;99325.25;;;2.13;100.00
42859;BME280;28505;56.970;40.998;2023-03-14T18:39:06;99334.56;;;2.15;100.00
42859;BME280;28505;56.970;40.998;2023-03-14T18:44:29;99343.66;;;2.19;100.00
42859;BME280;28505;56.970;40.998;2023-03-14T18:49:51;99348.22;;;2.24;100.00
42859;BME280;28505;56.970;40.998;2023-03-14T18:55:13;99370.00;;;2.21;100.00
42859;BME280;28505;56.970;40.998;2023-03-14T19:00:35;99365.75;;;2.25;100.00
42859;BME280;28505;56.970;40.998;2023-03-14T19:05:58;99343.69;;;2.24;100.00
42859;BME280;28505;56.970;40.998;2023-03-14T19:11:20;99353.22;;;2.20;100.00
42859;BME280;28505;56.970;40.998;2023-03-14T19:16:43;99369.69;;;2.17;100.00
42859;BME280;28505;56.970;40.998;2023-03-14T19:22:05;99377.69;;;2.22;100.00
42859;BME280;28505;56.970;40.998;2023-03-14T19:27:27;99376.09;;;2.21;100.00
42859;BME280;28505;56.970;40.998;2023-03-14T19:32:50;99396.31;;;2.22;100.00
42859;BME280;28505;56.970;40.998;2023-03-14T19:38:13;99380.28;;;2.12;100.00
42859;BME280;28505;56.970;40.998;2023-03-14T19:43:35;99378.66;;;2.11;100.00
42859;BME280;28505;56.970;40.998;2023-03-14T19:48:57;99372.25;;;2.07;100.00
42859;BME280;28505;56.970;40.998;2023-03-14T19:54:20;99378.59;;;2.06;100.00
42859;BME280;28505;56.970;40.998;2023-03-14T19:59:44;99379.16;;;2.08;100.00
42859;BME280;28505;56.970;40.998;2023-03-14T20:05:06;99389.91;;;2.18;100.00
42859;BME280;28505;56.970;40.998;2023-03-14T20:10:31;99388.59;;;2.21;100.00
42859;BME280;28505;56.970;40.998;2023-03-14T20:15:55;99396.66;;;2.31;100.00
42859;BME280;28505;56.970;40.998;2023-03-14T20:21:17;99400.09;;;2.26;100.00
42859;BME280;28505;56.970;40.998;2023-03-14T20:26:40;99415.59;;;2.34;100.00
42859;BME280;28505;56.970;40.998;2023-03-14T20:32:04;99403.78;;;2.25;100.00
42859;BME280;28505;56.970;40.998;2023-03-14T20:37:30;99422.47;;;2.30;100.00
42859;BME280;28505;56.970;40.998;2023-03-14T20:42:55;99430.19;;;2.32;100.00
42859;BME280;28505;56.970;40.998;2023-03-14T20:48:17;99445.19;;;2.43;100.00
42859;BME280;28505;56.970;40.998;2023-03-14T20:53:40;99441.34;;;2.29;100.00
42859;BME280;28505;56.970;40.998;2023-03-14T20:59:02;99478.13;;;2.37;100.00
42859;BME280;28505;56.970;40.998;2023-03-14T21:04:24;99467.41;;;2.32;100.00
42859;BME280;28505;56.970;40.998;2023-03-14T21:09:46;99474.41;;;2.11;100.00
42859;BME280;28505;56.970;40.998;2023-03-14T21:15:09;99478.53;;;2.02;100.00
42859;BME280;28505;56.970;40.998;2023-03-14T21:20:36;99488.56;;;1.95;100.00
42859;BME280;28505;56.970;40.998;2023-03-14T21:25:58;99499.66;;;1.86;100.00
42859;BME280;28505;56.970;40.998;2023-03-14T21:31:22;99500.38;;;1.82;100.00
42859;BME280;28505;56.970;40.998;2023-03-14T21:36:46;99502.16;;;1.76;100.00
42859;BME280;28505;56.970;40.998;2023-03-14T21:42:09;99505.56;;;1.72;100.00
42859;BME280;28505;56.970;40.998;2023-03-14T21:47:32;99504.19;;;1.69;100.00
42859;BME280;28505;56.970;40.998;2023-03-14T21:52:54;99491.03;;;1.57;100.00
42859;BME280;28505;56.970;40.998;2023-03-14T21:58:20;99502.28;;;1.64;100.00
42859;BME280;28505;56.970;40.998;2023-03-14T22:03:41;99491.69;;;1.70;100.00
42859;BME280;28505;56.970;40.998;2023-03-14T22:09:06;99508.03;;;1.78;100.00
42859;BME280;28505;56.970;40.998;2023-03-14T22:14:27;99488.00;;;1.71;100.00
42859;BME280;28505;56.970;40.998;2023-03-14T22:19:49;99504.00;;;1.76;100.00
42859;BME280;28505;56.970;40.998;2023-03-14T22:25:14;99507.03;;;1.84;100.00
42859;BME280;28505;56.970;40.998;2023-03-14T22:30:36;99506.78;;;1.86;100.00
42859;BME280;28505;56.970;40.998;2023-03-14T22:35:58;99485.91;;;1.73;100.00
42859;BME280;28505;56.970;40.998;2023-03-14T22:41:21;99484.91;;;1.79;100.00
42859;BME280;28505;56.970;40.998;2023-03-14T22:46:43;99491.34;;;1.83;100.00
42859;BME280;28505;56.970;40.998;2023-03-14T22:52:06;99502.34;;;1.92;100.00
42859;BME280;28505;56.970;40.998;2023-03-14T22:57:28;99502.91;;;1.94;100.00
42859;BME280;28505;56.970;40.998;2023-03-14T23:02:50;99492.78;;;1.91;100.00
42859;BME280;28505;56.970;40.998;2023-03-14T23:08:13;99491.16;;;1.90;100.00
42859;BME280;28505;56.970;40.998;2023-03-14T23:13:35;99495.47;;;1.96;100.00
42859;BME280;28505;56.970;40.998;2023-03-14T23:18:58;99487.50;;;1.96;100.00
42859;BME280;28505;56.970;40.998;2023-03-14T23:24:21;99493.13;;;1.99;100.00
42859;BME280;28505;56.970;40.998;2023-03-14T23:29:45;99488.06;;;1.98;100.00
42859;BME280;28505;56.970;40.998;2023-03-14T23:35:12;99498.50;;;2.04;100.00
42859;BME280;28505;56.970;40.998;2023-03-14T23:40:34;99507.84;;;2.07;100.00
42859;BME280;28505;56.970;40.998;2023-03-14T23:45:59;99492.78;;;1.91;100.00
42859;BME280;28505;56.970;40.998;2023-03-14T23:51:22;99506.59;;;1.93;100.00
42859;BME280;28505;56.970;40.998;2023-03-14T23:56:44;99502.53;;;1.85;100.00
